createdAt,value
2019-06-01T00:02:59.066Z,4.73
2019-06-01T00:08:01.107Z,6.47
2019-06-01T00:13:03.153Z,8.00
2019-06-01T00:18:05.172Z,6.10
2019-06-01T00:23:07.217Z,6.50
2019-06-01T00:28:09.290Z,4.70
2019-06-01T00:33:11.360Z,5.17
2019-06-01T00:38:13.434Z,5.10
2019-06-01T00:43:15.496Z,4.43
2019-06-01T00:48:17.529Z,4.73
2019-06-01T00:53:19.571Z,6.93
2019-06-01T00:58:21.590Z,5.63
2019-06-01T01:03:23.606Z,7.13
2019-06-01T01:08:25.702Z,6.20
2019-06-01T01:13:28.094Z,7.93
2019-06-01T01:18:30.196Z,9.53
2019-06-01T01:23:32.282Z,5.97
2019-06-01T01:28:34.265Z,5.10
2019-06-01T01:33:36.318Z,9.17
2019-06-01T01:38:38.360Z,8.97
2019-06-01T01:43:40.389Z,5.30
2019-06-01T01:48:42.466Z,6.73
2019-06-01T01:53:44.514Z,5.13
2019-06-01T01:58:46.563Z,8.00
2019-06-01T02:03:48.668Z,7.67
2019-06-01T02:08:51.058Z,6.23
2019-06-01T02:13:53.652Z,5.93
2019-06-01T02:18:57.189Z,5.67
2019-06-01T02:24:01.193Z,6.00
2019-06-01T02:29:04.423Z,7.03
2019-06-01T02:34:06.701Z,9.27
2019-06-01T02:39:09.986Z,6.00
2019-06-01T02:44:12.032Z,6.50
2019-06-01T02:49:14.140Z,6.20
2019-06-01T02:54:16.146Z,5.57
2019-06-01T02:59:18.179Z,7.73
2019-06-01T03:04:20.707Z,5.90
2019-06-01T03:09:24.256Z,6.70
2019-06-01T03:14:28.428Z,7.73
2019-06-01T03:19:32.602Z,6.70
2019-06-01T03:24:35.939Z,6.27
2019-06-01T03:29:40.902Z,7.57
2019-06-01T03:34:42.952Z,7.53
2019-06-01T03:39:45.339Z,7.43
2019-06-01T03:44:47.445Z,6.90
2019-06-01T03:49:49.534Z,7.63
2019-06-01T03:54:51.648Z,7.30
2019-06-01T03:59:53.555Z,8.63
2019-06-01T04:04:55.610Z,7.27
2019-06-01T04:09:57.664Z,7.73
2019-06-01T04:14:59.688Z,7.70
2019-06-01T04:20:02.326Z,6.03
2019-06-01T04:25:05.983Z,7.23
2019-06-01T04:30:09.424Z,9.23
2019-06-01T04:35:13.086Z,6.30
2019-06-01T04:40:15.612Z,7.33
2019-06-01T04:45:17.644Z,6.10
2019-06-01T04:50:19.679Z,5.73
2019-06-01T04:55:21.731Z,6.87
2019-06-01T05:00:28.261Z,6.80
2019-06-01T05:05:30.378Z,7.17
2019-06-01T05:10:32.447Z,6.40
2019-06-01T05:15:34.529Z,5.77
2019-06-01T05:20:36.577Z,6.65
2019-06-01T05:25:38.667Z,6.22
2019-06-01T05:30:40.748Z,4.53
2019-06-01T05:35:42.858Z,7.45
2019-06-01T05:40:44.942Z,5.37
2019-06-01T05:45:51.851Z,5.90
2019-06-01T05:50:53.957Z,4.80
2019-06-01T05:55:56.104Z,5.92
2019-06-01T06:00:58.302Z,5.20
2019-06-01T06:06:00.394Z,4.37
2019-06-01T06:11:02.464Z,4.37
2019-06-01T06:16:07.191Z,4.65
2019-06-01T06:21:12.547Z,4.90
2019-06-01T06:26:15.587Z,5.17
2019-06-01T06:31:19.183Z,7.67
2019-06-01T06:36:21.797Z,4.15
2019-06-01T06:41:24.877Z,4.90
2019-06-01T06:46:26.931Z,5.33
2019-06-01T06:51:29.002Z,6.05
2019-06-01T06:56:31.218Z,7.55
2019-06-01T07:01:33.420Z,6.85
2019-06-01T07:06:35.467Z,9.35
2019-06-01T07:11:38.711Z,5.28
2019-06-01T07:16:40.850Z,8.38
2019-06-01T07:21:42.929Z,7.85
2019-06-01T07:26:45.258Z,5.95
2019-06-01T07:31:47.293Z,5.37
2019-06-01T07:36:51.633Z,5.12
2019-06-01T07:41:53.883Z,5.80
2019-06-01T07:46:55.948Z,9.50
2019-06-01T07:51:58.050Z,4.30
2019-06-01T07:57:04.687Z,5.78
2019-06-01T08:02:07.336Z,7.78
2019-06-01T08:07:09.408Z,6.17
2019-06-01T08:12:14.569Z,6.08
2019-06-01T08:17:16.736Z,4.83
2019-06-01T08:22:18.922Z,5.03
2019-06-01T08:27:22.293Z,5.40
2019-06-01T08:32:24.679Z,5.08
2019-06-01T08:37:27.246Z,5.28
2019-06-01T08:42:31.689Z,4.83
2019-06-01T08:47:34.105Z,2.62
2019-06-01T08:52:38.321Z,6.53
2019-06-01T08:57:40.415Z,3.45
2019-06-01T09:02:42.724Z,5.72
2019-06-01T09:07:46.619Z,4.80
2019-06-01T09:12:48.746Z,3.67
2019-06-01T09:17:50.878Z,4.10
2019-06-01T09:22:55.328Z,4.65
2019-06-01T09:27:57.385Z,3.80
2019-06-01T09:33:09.726Z,5.47
2019-06-01T09:38:11.810Z,4.50
2019-06-01T09:43:13.942Z,3.02
2019-06-01T09:48:16.020Z,2.92
2019-06-01T09:53:18.095Z,4.40
2019-06-01T09:58:20.160Z,3.02
2019-06-01T10:03:22.631Z,2.92
2019-06-01T10:08:24.685Z,2.65
2019-06-01T10:13:26.738Z,3.45
2019-06-01T10:18:29.627Z,1.70
2019-06-01T10:23:34.331Z,2.45
2019-06-01T10:28:37.819Z,2.75
2019-06-01T10:33:40.840Z,3.35
2019-06-01T10:38:42.979Z,3.25
2019-06-01T10:43:47.525Z,1.80
2019-06-01T10:48:49.633Z,3.50
2019-06-01T10:53:52.072Z,1.25
2019-06-01T10:59:00.288Z,2.17
2019-06-01T11:03:59.637Z,2.67
2019-06-01T11:09:04.525Z,3.05
2019-06-01T11:14:09.382Z,2.30
2019-06-01T11:19:27.780Z,1.98
2019-06-01T11:24:31.068Z,1.62
2019-06-01T11:29:37.679Z,2.30
2019-06-01T11:34:38.462Z,4.83
2019-06-01T11:39:40.766Z,2.15
2019-06-01T11:44:42.966Z,3.37
2019-06-01T11:49:45.173Z,2.02
2019-06-01T11:54:48.759Z,3.00
2019-06-01T11:59:55.633Z,2.45
2019-06-01T12:04:58.038Z,2.08
2019-06-01T12:10:00.228Z,1.32
2019-06-01T12:15:02.399Z,5.90
2019-06-01T12:20:05.373Z,2.05
2019-06-01T12:25:08.367Z,2.20
2019-06-01T12:30:11.130Z,1.87
2019-06-01T12:35:13.793Z,2.67
2019-06-01T12:40:16.156Z,2.25
2019-06-01T12:45:22.822Z,2.33
2019-06-01T12:50:22.869Z,3.02
2019-06-01T12:55:25.008Z,4.15
2019-06-01T13:00:27.220Z,2.67
2019-06-01T13:05:29.349Z,2.65
2019-06-01T13:10:31.474Z,1.55
2019-06-01T13:15:33.439Z,1.87
2019-06-01T13:20:35.567Z,3.00
2019-06-01T13:25:37.707Z,1.32
2019-06-01T13:30:39.717Z,1.85
2019-06-01T13:35:42.294Z,2.67
2019-06-01T13:40:44.847Z,2.55
2019-06-01T13:45:47.264Z,2.60
2019-06-01T13:50:52.029Z,1.62
2019-06-01T13:55:54.904Z,2.60
2019-06-01T14:00:57.144Z,1.72
2019-06-01T14:06:01.224Z,2.72
2019-06-01T14:11:03.389Z,1.90
2019-06-01T14:16:05.554Z,3.33
2019-06-01T14:21:07.670Z,4.53
2019-06-01T14:26:09.719Z,1.40
2019-06-01T14:31:11.757Z,3.85
2019-06-01T14:36:14.904Z,2.95
2019-06-01T14:41:16.966Z,1.62
2019-06-01T14:46:19.086Z,1.80
2019-06-01T14:51:21.135Z,1.25
2019-06-01T14:56:23.158Z,1.67
2019-06-01T15:01:32.475Z,2.22
2019-06-01T15:06:29.167Z,2.30
2019-06-01T15:11:31.250Z,1.52
2019-06-01T15:16:33.450Z,1.67
2019-06-01T15:21:35.547Z,1.17
2019-06-01T15:26:38.800Z,1.12
2019-06-01T15:31:40.888Z,3.65
2019-06-01T15:36:43.007Z,2.27
2019-06-01T15:41:45.088Z,2.47
2019-06-01T15:46:47.121Z,3.98
2019-06-01T15:51:49.220Z,3.67
2019-06-01T15:56:52.175Z,3.33
2019-06-01T16:01:54.999Z,4.05
2019-06-01T16:06:57.254Z,2.40
2019-06-01T16:11:59.656Z,2.90
2019-06-01T16:17:02.989Z,6.53
2019-06-01T16:22:05.958Z,3.25
2019-06-01T16:27:08.032Z,2.50
2019-06-01T16:32:10.234Z,2.37
2019-06-01T16:37:12.297Z,8.03
2019-06-01T16:42:14.392Z,2.85
2019-06-01T16:47:16.441Z,3.40
2019-06-01T16:52:18.509Z,2.77
2019-06-01T16:57:20.589Z,4.33
2019-06-01T17:02:22.664Z,13.48
2019-06-01T17:07:25.114Z,8.93
2019-06-01T17:12:27.230Z,3.00
2019-06-01T17:17:29.446Z,7.87
2019-06-01T17:22:31.626Z,6.53
2019-06-01T17:27:34.094Z,4.20
2019-06-01T17:32:36.294Z,5.67
2019-06-01T17:37:42.531Z,3.25
2019-06-01T17:42:44.630Z,3.77
2019-06-01T17:47:46.902Z,2.50
2019-06-01T17:52:49.168Z,3.77
2019-06-01T17:57:51.233Z,6.28
2019-06-01T18:02:54.522Z,6.28
2019-06-01T18:07:56.655Z,4.30
2019-06-01T18:12:58.855Z,2.60
2019-06-01T18:18:02.224Z,4.83
2019-06-01T18:23:07.193Z,3.20
2019-06-01T18:28:15.126Z,5.92
2019-06-01T18:33:13.175Z,4.33
2019-06-01T18:38:15.687Z,7.85
2019-06-01T18:43:18.016Z,2.65
2019-06-01T18:48:20.548Z,6.10
2019-06-01T18:53:22.632Z,6.33
2019-06-01T18:58:24.883Z,5.05
2019-06-01T19:03:27.164Z,5.10
2019-06-01T19:08:29.221Z,8.00
2019-06-01T19:13:31.284Z,7.12
2019-06-01T19:18:33.402Z,5.30
2019-06-01T19:23:35.500Z,4.55
2019-06-01T19:28:37.535Z,3.70
2019-06-01T19:33:39.594Z,4.40
2019-06-01T19:38:42.939Z,5.58
2019-06-01T19:43:44.988Z,4.83
2019-06-01T19:48:47.123Z,4.90
2019-06-01T19:53:49.175Z,6.03
2019-06-01T19:58:51.218Z,6.70
2019-06-01T20:03:53.244Z,4.62
2019-06-01T20:08:55.347Z,7.33
2019-06-01T20:13:57.476Z,10.38
2019-06-01T20:18:59.603Z,8.80
2019-06-01T20:24:01.705Z,6.10
2019-06-01T20:29:07.913Z,5.25
2019-06-01T20:34:10.033Z,7.12
2019-06-01T20:39:14.200Z,6.53
2019-06-01T20:44:18.766Z,3.58
2019-06-01T20:49:21.052Z,5.22
2019-06-01T20:54:23.279Z,4.22
2019-06-01T20:59:25.350Z,4.58
2019-06-01T21:04:29.348Z,5.33
2019-06-01T21:09:31.566Z,3.80
2019-06-01T21:14:34.754Z,4.33
2019-06-01T21:19:36.973Z,3.72
2019-06-01T21:24:39.081Z,4.30
2019-06-01T21:29:41.259Z,5.17
2019-06-01T21:34:43.593Z,4.17
2019-06-01T21:39:45.724Z,5.92
2019-06-01T21:44:47.764Z,5.83
2019-06-01T21:49:49.797Z,5.72
2019-06-01T21:54:51.835Z,3.62
2019-06-01T21:59:57.788Z,4.28
2019-06-01T22:05:03.912Z,5.17
2019-06-01T22:10:08.034Z,5.20
2019-06-01T22:15:10.097Z,5.40
2019-06-01T22:20:12.154Z,4.20
2019-06-01T22:25:14.315Z,4.97
2019-06-01T22:30:18.256Z,6.00
2019-06-01T22:35:20.895Z,4.30
2019-06-01T22:40:23.144Z,7.70
2019-06-01T22:45:27.010Z,7.70
2019-06-01T22:50:29.194Z,12.05
2019-06-01T22:55:32.509Z,9.33
2019-06-01T23:00:34.829Z,11.00
2019-06-01T23:05:37.011Z,9.37
2019-06-01T23:10:39.082Z,11.00
2019-06-01T23:15:41.099Z,12.23
2019-06-01T23:20:44.393Z,9.63
2019-06-01T23:25:46.438Z,11.55
2019-06-01T23:30:48.528Z,12.13
2019-06-01T23:35:50.644Z,9.77
2019-06-01T23:40:52.813Z,10.40
2019-06-01T23:45:54.912Z,7.43
2019-06-01T23:50:57.028Z,8.93
2019-06-01T23:55:59.692Z,8.53
